CL56 weather

Ranchaero Airport
Chico, California, United States

Public forecast

Using degrees Fahrenheit for public forecast. Weather courtesy of forecast.io.

Closest aviation weather report (METAR) to Ranchaero Airport

Closest report is Chico Municipal Airport, 4.6 nm (8.5 km) N. Retrieved 2019/10/21 16:47 UTC (19 minutes ago):

KCIC 211647Z VRB05KT 40SM FEW180 17/05 A3021

Closest aviation forecast (TAF) to Ranchaero Airport

Closest forecast is Red Bluff Municipal Airport, 31.3 nm (57.9 km) NW. Retrieved 2019/10/21 12:27 UTC (5 hours ago):

TAF KRBL 211124Z 2112/2212 35010KT P6SM SKC FM220300 33005KT P6SM SKC